Time;durP1;ratioP1;P1;durP2;ratioP2;P2;SDS_P1;SDS_P2;PMS_P1;PMS_P2;Temp;Humidity;BMP_temperature;BMP_pressure;BME280_temperature;BME280_humidity;BME280_pressure;Samples;Min_cycle;Max_cycle;Signal;HPM_P1;HPM_P2
2023/08/08 00:01:43;;;;;;;0.20;0.20;;;;;;;13.80;76.24;95695.06;4342402;32;20182;-67
2023/08/08 00:04:10;;;;;;;0.10;0.10;;;;;;;13.73;76.46;95685.59;4349629;32;20188;-68
2023/08/08 00:06:36;;;;;;;0.10;0.10;;;;;;;13.63;76.88;95685.06;4355498;32;20208;-68
2023/08/08 00:09:03;;;;;;;0.97;0.20;;;;;;;13.75;76.88;95671.97;4340532;32;20193;-67
2023/08/08 00:11:29;;;;;;;0.20;0.20;;;;;;;13.72;76.58;95683.25;4341524;32;20295;-67
2023/08/08 00:13:55;;;;;;;0.10;0.10;;;;;;;13.75;75.79;95672.75;4344832;32;20189;-68
2023/08/08 00:16:20;;;;;;;0.50;0.27;;;;;;;13.70;75.79;95678.25;4355068;32;20208;-67
2023/08/08 00:18:45;;;;;;;0.07;0.07;;;;;;;13.85;75.32;95670.94;4342013;32;20256;-68
2023/08/08 00:21:11;;;;;;;0.10;0.10;;;;;;;14.03;74.70;95668.06;4342253;32;20200;-67
2023/08/08 00:23:36;;;;;;;2.33;0.20;;;;;;;13.97;74.50;95674.63;4355510;32;20200;-67
2023/08/08 00:26:01;;;;;;;0.10;0.10;;;;;;;13.87;74.82;95676.75;4354304;32;20200;-67
2023/08/08 00:28:27;;;;;;;0.20;0.20;;;;;;;13.92;74.58;95677.44;4354843;32;20208;-66
2023/08/08 00:30:52;;;;;;;0.20;0.20;;;;;;;13.96;74.59;95670.38;4340952;32;20220;-68
2023/08/08 00:33:17;;;;;;;0.00;0.00;;;;;;;13.61;75.23;95671.25;4343360;32;20189;-67
2023/08/08 00:35:44;;;;;;;0.10;0.10;;;;;;;13.65;75.59;95662.34;4341818;32;20181;-67
2023/08/08 00:38:10;;;;;;;0.43;0.43;;;;;;;13.87;74.83;95668.75;4341152;32;20249;-67
2023/08/08 00:40:35;;;;;;;0.10;0.10;;;;;;;13.94;75.45;95667.22;4343485;32;20189;-67
2023/08/08 00:43:00;;;;;;;0.30;0.30;;;;;;;14.08;74.58;95667.16;4342763;32;20251;-67
2023/08/08 00:45:26;;;;;;;0.00;0.00;;;;;;;13.96;74.48;95662.38;4357015;32;20192;-67
2023/08/08 00:47:51;;;;;;;0.13;0.13;;;;;;;13.90;74.10;95668.94;4354594;32;20250;-69
2023/08/08 00:50:17;;;;;;;0.40;0.40;;;;;;;14.02;73.93;95655.03;4338943;32;20204;-69
2023/08/08 00:52:44;;;;;;;0.13;0.13;;;;;;;14.00;74.13;95662.56;4338802;32;20213;-69
2023/08/08 00:55:10;;;;;;;0.20;0.20;;;;;;;13.99;74.44;95664.44;4338866;32;20279;-69
2023/08/08 00:57:38;;;;;;;0.07;0.07;;;;;;;13.91;74.14;95659.06;4341265;32;20178;-69
2023/08/08 01:00:05;;;;;;;0.10;0.10;;;;;;;13.94;75.00;95666.44;4339392;32;20186;-69
2023/08/08 01:02:31;;;;;;;0.00;0.00;;;;;;;13.98;73.98;95660.19;4343192;32;20196;-69
2023/08/08 01:04:56;;;;;;;0.00;0.00;;;;;;;14.04;73.83;95652.84;4343539;32;20196;-68
2023/08/08 01:07:44;;;;;;;2.83;0.50;;;;;;;14.04;74.27;95647.50;4356324;32;20248;-69
2023/08/08 01:10:14;;;;;;;0.10;0.10;;;;;;;14.08;74.03;95654.59;4341818;32;20268;-69
2023/08/08 01:12:45;;;;;;;0.00;0.00;;;;;;;13.97;74.53;95655.16;4348042;32;20291;-69
2023/08/08 01:15:12;;;;;;;0.17;0.17;;;;;;;13.91;74.66;95651.06;4344599;32;20232;-70
2023/08/08 01:17:39;;;;;;;0.30;0.30;;;;;;;13.86;74.61;95651.19;4330015;32;20214;-67
2023/08/08 01:20:05;;;;;;;0.00;0.00;;;;;;;13.96;74.88;95656.25;4324748;32;20201;-67
2023/08/08 01:22:50;;;;;;;0.10;0.10;;;;;;;13.90;74.50;95654.81;4326318;32;20216;-67
2023/08/08 01:25:16;;;;;;;0.20;0.20;;;;;;;13.83;75.11;95654.47;4322393;32;20196;-67
2023/08/08 01:27:42;;;;;;;0.10;0.10;;;;;;;13.87;74.97;95655.44;4330608;32;20205;-67
2023/08/08 01:30:08;;;;;;;0.07;0.07;;;;;;;13.93;74.60;95649.63;4334768;32;20190;-67
2023/08/08 01:32:34;;;;;;;0.17;0.17;;;;;;;14.03;74.23;95644.06;4326815;32;20264;-67
2023/08/08 01:34:59;;;;;;;0.13;0.13;;;;;;;13.94;74.76;95637.88;4327193;32;20186;-70
2023/08/08 01:37:39;;;;;;;0.23;0.23;;;;;;;13.96;74.44;95637.56;4323442;32;20205;-67
2023/08/08 01:40:06;;;;;;;0.00;0.00;;;;;;;13.91;74.94;95627.06;4325816;32;20194;-67
2023/08/08 01:42:32;;;;;;;0.30;0.30;;;;;;;13.97;74.22;95636.47;4337244;32;20181;-67
2023/08/08 01:44:58;;;;;;;0.20;0.20;;;;;;;13.91;74.50;95640.41;4330320;32;20204;-67
2023/08/08 01:47:23;;;;;;;0.20;0.20;;;;;;;13.82;74.99;95635.00;4322275;32;20225;-68
2023/08/08 01:49:48;;;;;;;0.00;0.00;;;;;;;13.96;74.70;95634.91;4343867;32;20186;-67
2023/08/08 01:52:14;;;;;;;0.17;0.17;;;;;;;14.06;74.28;95632.78;4325033;32;20231;-67
2023/08/08 01:54:39;;;;;;;0.17;0.17;;;;;;;14.01;74.60;95632.13;4336476;32;20181;-67
2023/08/08 01:57:05;;;;;;;0.10;0.10;;;;;;;13.83;74.92;95630.47;4334342;32;20247;-68
2023/08/08 01:59:30;;;;;;;0.20;0.20;;;;;;;13.98;74.65;95625.50;4329280;32;20204;-66
2023/08/08 02:01:55;;;;;;;0.10;0.10;;;;;;;13.98;74.57;95628.19;4325112;32;20200;-67
2023/08/08 02:04:20;;;;;;;0.20;0.20;;;;;;;13.87;74.52;95626.87;4322934;32;20186;-67
2023/08/08 02:06:46;;;;;;;2.20;0.13;;;;;;;13.85;75.10;95626.41;4320503;32;20295;-67
2023/08/08 02:09:13;;;;;;;0.23;0.23;;;;;;;13.86;75.06;95621.84;4330284;32;20186;-67
2023/08/08 02:11:39;;;;;;;0.13;0.13;;;;;;;13.63;75.93;95627.22;4322180;32;20194;-67
2023/08/08 02:14:04;;;;;;;1.10;0.33;;;;;;;13.66;75.12;95626.59;4325087;32;20251;-67
2023/08/08 02:16:29;;;;;;;0.40;0.40;;;;;;;13.74;75.02;95620.53;4340140;32;20212;-67
2023/08/08 02:18:55;;;;;;;0.10;0.10;;;;;;;13.60;75.26;95617.16;4343161;32;20204;-67
2023/08/08 02:21:20;;;;;;;1.50;0.43;;;;;;;13.65;75.21;95621.56;4336085;32;20201;-67
2023/08/08 02:23:45;;;;;;;0.43;0.43;;;;;;;13.77;74.84;95621.78;4354089;32;20334;-67
2023/08/08 02:26:11;;;;;;;0.10;0.10;;;;;;;13.62;75.39;95616.84;4337524;32;20193;-68
2023/08/08 02:28:36;;;;;;;0.23;0.23;;;;;;;13.56;75.51;95610.84;4350090;32;20223;-67
2023/08/08 02:31:01;;;;;;;0.17;0.17;;;;;;;13.62;75.58;95612.31;4341498;32;20185;-67
2023/08/08 02:33:27;;;;;;;0.00;0.00;;;;;;;13.62;74.82;95614.97;4349786;32;20255;-66
2023/08/08 02:35:52;;;;;;;0.20;0.20;;;;;;;13.71;74.21;95612.38;4344410;32;20242;-67
2023/08/08 02:38:17;;;;;;;0.10;0.10;;;;;;;13.62;74.76;95617.63;4344390;32;20189;-67
2023/08/08 02:40:43;;;;;;;0.20;0.20;;;;;;;13.82;74.86;95610.22;4351934;32;20192;-67
2023/08/08 02:43:09;;;;;;;0.10;0.10;;;;;;;13.71;74.38;95613.16;4333687;32;20196;-67
2023/08/08 02:45:34;;;;;;;0.20;0.20;;;;;;;13.48;74.50;95613.47;4336639;32;20185;-67
2023/08/08 02:47:59;;;;;;;4.30;0.47;;;;;;;13.62;74.23;95614.97;4334251;32;20204;-67
2023/08/08 02:50:25;;;;;;;0.40;0.33;;;;;;;13.71;74.24;95613.16;4334079;32;20261;-67
2023/08/08 02:52:50;;;;;;;0.57;0.30;;;;;;;13.66;74.02;95615.94;4342153;32;20189;-68
2023/08/08 02:55:15;;;;;;;0.10;0.10;;;;;;;13.73;74.00;95608.28;4355048;32;20315;-67
2023/08/08 02:57:41;;;;;;;0.40;0.23;;;;;;;13.79;73.81;95614.28;4343223;32;20177;-68
2023/08/08 03:00:08;;;;;;;0.20;0.20;;;;;;;13.89;73.29;95608.69;4339628;32;20197;-67
2023/08/08 03:02:33;;;;;;;0.47;0.30;;;;;;;13.91;72.99;95614.50;4350433;32;20189;-67
2023/08/08 03:04:59;;;;;;;0.00;0.00;;;;;;;13.85;73.58;95612.28;4333514;32;20232;-67
2023/08/08 03:07:24;;;;;;;0.97;0.53;;;;;;;13.84;73.21;95618.69;4344826;32;20189;-67
2023/08/08 03:09:49;;;;;;;0.30;0.30;;;;;;;13.70;73.52;95621.47;4348843;32;20201;-67
2023/08/08 03:12:15;;;;;;;0.10;0.10;;;;;;;13.72;73.65;95622.69;4347699;32;20223;-67
2023/08/08 03:14:40;;;;;;;0.20;0.20;;;;;;;13.74;73.45;95617.84;4340534;32;20245;-67
2023/08/08 03:17:05;;;;;;;0.73;0.70;;;;;;;13.61;73.72;95624.06;4336860;32;20220;-67
2023/08/08 03:19:30;;;;;;;0.60;0.27;;;;;;;13.58;73.61;95618.53;4341710;32;20177;-67
2023/08/08 03:21:56;;;;;;;0.40;0.40;;;;;;;13.71;73.51;95618.50;4330211;32;20196;-67
2023/08/08 03:24:21;;;;;;;0.40;0.40;;;;;;;13.66;73.75;95618.59;4338887;32;20181;-68
2023/08/08 03:26:46;;;;;;;0.00;0.00;;;;;;;13.64;73.87;95610.13;4321199;32;20200;-67
2023/08/08 03:29:12;;;;;;;0.20;0.20;;;;;;;13.65;73.83;95614.38;4340579;32;20258;-67
2023/08/08 03:31:38;;;;;;;3.00;0.57;;;;;;;13.74;73.96;95607.19;4337144;32;20193;-67
2023/08/08 03:34:04;;;;;;;0.10;0.10;;;;;;;13.67;74.05;95612.19;4341094;32;20208;-67
2023/08/08 03:36:29;;;;;;;0.30;0.30;;;;;;;13.71;74.08;95609.69;4331250;32;20233;-67
2023/08/08 03:38:55;;;;;;;0.90;0.53;;;;;;;13.80;73.80;95607.06;4323688;32;20181;-67
2023/08/08 03:41:20;;;;;;;0.30;0.30;;;;;;;13.82;73.85;95612.88;4324856;32;20193;-67
2023/08/08 03:43:45;;;;;;;0.10;0.10;;;;;;;13.91;73.68;95606.50;4333209;32;20261;-67
2023/08/08 03:46:11;;;;;;;10.97;0.67;;;;;;;13.79;73.45;95603.59;4320980;32;20255;-68
2023/08/08 03:48:37;;;;;;;0.20;0.20;;;;;;;13.81;73.57;95605.97;4341943;32;20193;-67
2023/08/08 03:51:02;;;;;;;0.13;0.13;;;;;;;13.75;73.48;95603.44;4339357;32;20209;-67
2023/08/08 03:53:28;;;;;;;0.23;0.23;;;;;;;13.72;73.60;95604.03;4323689;32;20213;-66
2023/08/08 03:55:53;;;;;;;0.43;0.40;;;;;;;13.59;74.20;95604.91;4336342;32;20185;-67
2023/08/08 03:58:19;;;;;;;0.57;0.50;;;;;;;13.59;74.24;95599.59;4332512;32;20185;-67
2023/08/08 04:00:47;;;;;;;0.20;0.20;;;;;;;13.70;74.24;95600.91;4336919;32;20180;-67
2023/08/08 04:03:14;;;;;;;0.40;0.37;;;;;;;13.76;73.97;95605.00;4325582;32;20189;-67
2023/08/08 04:05:40;;;;;;;0.30;0.30;;;;;;;13.77;73.92;95601.25;4322424;32;20233;-67
2023/08/08 04:08:06;;;;;;;0.10;0.10;;;;;;;13.76;74.38;95605.00;4341103;32;20268;-67
2023/08/08 04:10:31;;;;;;;0.23;0.23;;;;;;;13.72;74.48;95606.69;4327888;32;20196;-67
2023/08/08 04:12:56;;;;;;;1.13;0.47;;;;;;;13.67;74.67;95611.41;4341901;32;20228;-66
2023/08/08 04:15:22;;;;;;;0.10;0.10;;;;;;;13.79;74.60;95613.50;4326318;32;20233;-67
2023/08/08 04:17:47;;;;;;;0.07;0.07;;;;;;;13.91;74.02;95614.50;4354897;32;20193;-67
2023/08/08 04:20:12;;;;;;;0.20;0.20;;;;;;;13.82;74.50;95610.22;4348063;32;20193;-67
2023/08/08 04:22:38;;;;;;;0.23;0.23;;;;;;;13.84;74.66;95616.81;4340305;32;20211;-67
2023/08/08 04:25:04;;;;;;;0.30;0.30;;;;;;;13.84;75.03;95616.81;4339866;32;20240;-67
2023/08/08 04:27:29;;;;;;;0.83;0.30;;;;;;;13.89;74.98;95618.56;4346385;32;20371;-67
2023/08/08 04:29:54;;;;;;;0.20;0.20;;;;;;;13.94;74.62;95619.22;4353920;32;20200;-67
2023/08/08 04:32:20;;;;;;;0.60;0.60;;;;;;;13.83;74.79;95628.56;4340410;32;20197;-67
2023/08/08 04:34:45;;;;;;;0.30;0.30;;;;;;;13.95;74.82;95623.44;4348262;32;20249;-67
2023/08/08 04:37:10;;;;;;;0.37;0.37;;;;;;;13.93;74.72;95624.84;4346898;32;20185;-67
2023/08/08 04:39:36;;;;;;;0.17;0.17;;;;;;;13.89;74.82;95623.91;4357190;32;20177;-67
2023/08/08 04:42:01;;;;;;;0.30;0.30;;;;;;;13.88;74.95;95627.66;4343657;32;20189;-67
2023/08/08 04:44:26;;;;;;;0.30;0.30;;;;;;;13.88;75.05;95628.44;4342176;32;20240;-65
2023/08/08 04:46:52;;;;;;;0.20;0.20;;;;;;;13.87;75.42;95634.09;4356728;32;20206;-67
2023/08/08 04:49:17;;;;;;;0.23;0.23;;;;;;;13.81;75.55;95632.63;4355540;32;20282;-68
2023/08/08 04:51:42;;;;;;;0.20;0.20;;;;;;;13.79;75.88;95626.81;4339100;32;20235;-67
2023/08/08 04:54:08;;;;;;;0.37;0.17;;;;;;;13.83;75.97;95622.47;4351328;32;20203;-67
2023/08/08 04:56:33;;;;;;;1.70;0.40;;;;;;;13.98;75.67;95624.72;4348717;32;20203;-67
2023/08/08 04:58:58;;;;;;;0.20;0.20;;;;;;;13.92;75.88;95613.41;4351941;32;20234;-68
2023/08/08 05:01:23;;;;;;;4.63;0.70;;;;;;;13.99;75.64;95620.97;4352711;32;20208;-68
2023/08/08 05:03:49;;;;;;;0.03;0.03;;;;;;;14.10;75.61;95622.28;4343785;32;20223;-67
2023/08/08 05:06:15;;;;;;;0.13;0.13;;;;;;;14.21;75.57;95622.78;4350336;32;20204;-67
2023/08/08 05:08:40;;;;;;;0.37;0.37;;;;;;;14.03;76.02;95629.94;4343265;32;20211;-67
2023/08/08 05:11:05;;;;;;;0.10;0.10;;;;;;;14.07;75.80;95620.22;4352121;32;20280;-67
2023/08/08 05:13:30;;;;;;;0.20;0.20;;;;;;;14.12;75.65;95621.97;4355846;32;20212;-67
2023/08/08 05:15:56;;;;;;;0.20;0.20;;;;;;;14.15;75.98;95624.00;4350017;32;20212;-67
2023/08/08 05:18:21;;;;;;;0.27;0.27;;;;;;;14.17;76.12;95619.16;4351615;32;20200;-67
2023/08/08 05:20:46;;;;;;;0.30;0.30;;;;;;;14.14;76.46;95633.87;4352704;32;20288;-67
2023/08/08 05:23:12;;;;;;;1.50;0.93;;;;;;;14.06;76.53;95623.97;4353301;32;20193;-67
2023/08/08 05:25:37;;;;;;;0.40;0.40;;;;;;;14.30;75.97;95621.72;4353544;32;20193;-69
2023/08/08 05:28:03;;;;;;;0.63;0.63;;;;;;;14.30;75.47;95620.94;4359317;32;20224;-67
2023/08/08 05:30:28;;;;;;;0.20;0.20;;;;;;;14.36;75.75;95623.12;4351697;32;20201;-67
2023/08/08 05:32:53;;;;;;;0.27;0.20;;;;;;;14.34;75.40;95620.00;4344935;32;20211;-67
2023/08/08 05:35:19;;;;;;;0.17;0.17;;;;;;;14.36;75.73;95615.12;4346281;32;20261;-67
2023/08/08 05:37:47;;;;;;;0.60;0.60;;;;;;;14.39;75.86;95619.84;4344606;32;20189;-67
2023/08/08 05:40:12;;;;;;;0.30;0.30;;;;;;;14.45;75.86;95615.19;4355112;32;20193;-67
2023/08/08 05:42:41;;;;;;;0.40;0.40;;;;;;;14.40;75.93;95621.47;4344746;32;20332;-61
2023/08/08 05:45:07;;;;;;;0.30;0.30;;;;;;;14.53;75.32;95617.13;4337654;32;20196;-61
2023/08/08 05:47:33;;;;;;;0.20;0.20;;;;;;;14.39;75.88;95619.84;4353804;32;20226;-61
2023/08/08 05:49:58;;;;;;;0.40;0.40;;;;;;;14.38;75.67;95607.59;4354476;32;20192;-61
2023/08/08 05:52:23;;;;;;;0.00;0.00;;;;;;;14.58;75.33;95618.84;4360464;32;20193;-61
2023/08/08 05:54:49;;;;;;;0.23;0.23;;;;;;;14.70;74.73;95611.81;4342953;32;20189;-61
2023/08/08 05:57:14;;;;;;;0.37;0.37;;;;;;;14.44;75.49;95614.41;4344166;32;20228;-61
2023/08/08 05:59:39;;;;;;;0.27;0.27;;;;;;;14.52;75.44;95617.44;4353685;32;20228;-61
2023/08/08 06:02:05;;;;;;;0.20;0.20;;;;;;;14.47;75.60;95618.34;4343118;32;20185;-61
2023/08/08 06:04:31;;;;;;;1.17;0.77;;;;;;;14.28;75.79;95620.47;4343607;32;20239;-61
2023/08/08 06:06:56;;;;;;;0.30;0.30;;;;;;;14.24;76.07;95619.50;4343429;32;20213;-61
2023/08/08 06:09:22;;;;;;;0.57;0.50;;;;;;;14.37;76.04;95619.37;4350833;32;20189;-61
2023/08/08 06:11:48;;;;;;;0.33;0.33;;;;;;;14.37;76.00;95629.25;4355016;32;20252;-61
2023/08/08 06:14:13;;;;;;;0.30;0.27;;;;;;;14.41;75.58;95625.69;4355283;32;20255;-61
2023/08/08 06:16:38;;;;;;;0.50;0.50;;;;;;;14.43;76.21;95625.41;4357509;32;20200;-61
2023/08/08 06:19:04;;;;;;;0.53;0.53;;;;;;;14.55;75.66;95625.56;4348984;32;20198;-61
2023/08/08 06:21:29;;;;;;;0.30;0.30;;;;;;;14.49;75.80;95626.06;4356630;32;20239;-61
2023/08/08 06:23:54;;;;;;;0.30;0.30;;;;;;;14.50;75.41;95623.06;4359298;32;20188;-61
2023/08/08 06:26:23;;;;;;;0.50;0.50;;;;;;;14.49;75.79;95626.06;4342404;32;20189;-61
2023/08/08 06:28:48;;;;;;;0.20;0.20;;;;;;;14.58;75.59;95629.50;4343156;32;20224;-61
2023/08/08 06:31:14;;;;;;;0.30;0.30;;;;;;;14.71;75.65;95625.94;4353790;32;20307;-61
2023/08/08 06:33:40;;;;;;;0.00;0.00;;;;;;;14.66;75.30;95624.19;4357453;32;20232;-61
2023/08/08 06:36:05;;;;;;;0.30;0.30;;;;;;;14.57;75.47;95618.03;4355493;32;20192;-61
2023/08/08 06:38:33;;;;;;;0.43;0.43;;;;;;;14.52;75.04;95620.88;4351874;32;20206;-61
2023/08/08 06:41:00;;;;;;;0.20;0.20;;;;;;;14.80;75.16;95616.03;4351043;32;20269;-61
2023/08/08 06:43:25;;;;;;;0.47;0.47;;;;;;;14.90;74.65;95614.97;4342789;32;20208;-61
2023/08/08 06:45:50;;;;;;;0.27;0.27;;;;;;;14.65;75.30;95627.97;4346068;32;20177;-61
2023/08/08 06:48:16;;;;;;;0.40;0.40;;;;;;;14.81;75.18;95617.63;4348749;32;20208;-61
2023/08/08 06:50:41;;;;;;;0.20;0.20;;;;;;;14.87;75.61;95621.72;4344884;32;20292;-61
2023/08/08 06:53:06;;;;;;;0.07;0.07;;;;;;;14.79;75.87;95617.16;4342960;32;20197;-61
2023/08/08 06:55:32;;;;;;;0.20;0.20;;;;;;;14.89;75.47;95608.84;4350336;32;20196;-61
2023/08/08 06:57:57;;;;;;;0.30;0.30;;;;;;;14.86;75.37;95620.16;4359075;32;20200;-64
2023/08/08 07:00:22;;;;;;;0.10;0.10;;;;;;;15.10;75.33;95615.12;4343609;32;20173;-61
2023/08/08 07:02:47;;;;;;;0.57;0.57;;;;;;;15.04;74.95;95611.03;4344481;32;20189;-61
2023/08/08 07:05:13;;;;;;;0.30;0.30;;;;;;;15.25;74.72;95615.75;4357569;32;20204;-62
2023/08/08 07:07:38;;;;;;;0.30;0.30;;;;;;;15.43;74.11;95606.62;4356588;32;20204;-61
2023/08/08 07:10:05;;;;;;;0.57;0.57;;;;;;;15.38;74.81;95604.88;4341511;32;20246;-61
2023/08/08 07:12:30;;;;;;;0.30;0.30;;;;;;;15.47;73.22;95602.22;4342876;32;20236;-61
2023/08/08 07:14:55;;;;;;;0.10;0.10;;;;;;;15.51;75.06;95608.50;4345296;32;20190;-61
2023/08/08 07:17:21;;;;;;;0.20;0.20;;;;;;;15.72;73.62;95606.78;4342616;32;20201;-61
2023/08/08 07:19:46;;;;;;;0.57;0.57;;;;;;;15.85;73.71;95606.88;4348536;32;23339;-61
2023/08/08 07:22:11;;;;;;;1.70;0.20;;;;;;;15.79;72.50;95608.97;4355787;32;20181;-61
2023/08/08 07:24:38;;;;;;;0.10;0.10;;;;;;;15.80;72.62;95605.16;4349766;32;20241;-61
2023/08/08 07:27:04;;;;;;;0.40;0.40;;;;;;;15.92;72.46;95599.16;4348388;32;20227;-61
2023/08/08 07:29:30;;;;;;;0.10;0.10;;;;;;;15.91;72.12;95598.38;4358542;32;20198;-61
2023/08/08 07:31:58;;;;;;;0.10;0.10;;;;;;;16.01;72.07;95600.69;4350762;32;20196;-62
2023/08/08 07:34:23;;;;;;;0.10;0.10;;;;;;;16.09;71.88;95599.09;4355580;32;20212;-60
2023/08/08 07:36:48;;;;;;;0.67;0.60;;;;;;;16.18;71.37;95599.84;4350776;32;20193;-61
2023/08/08 07:39:14;;;;;;;0.40;0.40;;;;;;;16.30;70.50;95601.84;4341288;32;20228;-61
2023/08/08 07:41:40;;;;;;;0.13;0.13;;;;;;;16.32;70.54;95600.41;4355212;32;20247;-61
2023/08/08 07:44:05;;;;;;;0.10;0.10;;;;;;;16.38;71.71;95599.12;4355258;32;20193;-61
2023/08/08 07:46:32;;;;;;;0.17;0.17;;;;;;;16.46;69.95;95600.16;4351234;32;20193;-61
2023/08/08 07:48:59;;;;;;;0.13;0.13;;;;;;;16.50;67.80;95599.22;4351768;32;20228;-61
2023/08/08 07:51:25;;;;;;;0.33;0.33;;;;;;;16.35;68.43;95590.94;4353252;32;20204;-61
2023/08/08 07:53:50;;;;;;;0.30;0.30;;;;;;;16.52;69.08;95592.75;4343958;32;20228;-61
2023/08/08 07:56:15;;;;;;;0.37;0.37;;;;;;;16.58;68.74;95581.53;4341242;32;20219;-62
2023/08/08 07:58:40;;;;;;;0.30;0.30;;;;;;;16.69;68.87;95584.62;4349622;32;20205;-61
2023/08/08 08:01:06;;;;;;;0.17;0.17;;;;;;;16.80;68.56;95575.91;4351284;32;20203;-61
2023/08/08 08:03:31;;;;;;;0.20;0.20;;;;;;;16.81;68.70;95584.72;4340944;32;20231;-61
2023/08/08 08:05:56;;;;;;;0.20;0.20;;;;;;;16.79;66.72;95577.00;4347392;32;20238;-61
2023/08/08 08:08:22;;;;;;;0.20;0.20;;;;;;;16.86;65.04;95575.69;4341963;32;20255;-61
2023/08/08 08:10:48;;;;;;;0.17;0.17;;;;;;;16.91;66.08;95576.28;4342377;32;20320;-61
2023/08/08 08:13:14;;;;;;;0.10;0.10;;;;;;;17.01;64.52;95567.84;4352466;32;20200;-61
2023/08/08 08:15:39;;;;;;;1.60;0.80;;;;;;;17.01;64.82;95572.44;4349665;32;20309;-61
2023/08/08 08:18:04;;;;;;;0.20;0.20;;;;;;;17.15;66.61;95562.22;4344121;32;20241;-61
2023/08/08 08:20:30;;;;;;;0.40;0.40;;;;;;;17.21;63.97;95570.84;4356366;32;20227;-61
2023/08/08 08:22:55;;;;;;;1.00;0.60;;;;;;;17.32;64.20;95569.31;4350477;32;20180;-61
2023/08/08 08:25:20;;;;;;;0.50;0.50;;;;;;;17.37;63.83;95563.75;4355106;32;20271;-61
2023/08/08 08:27:46;;;;;;;0.40;0.40;;;;;;;17.26;62.04;95559.91;4356291;32;20253;-61
2023/08/08 08:30:12;;;;;;;0.27;0.27;;;;;;;17.35;62.48;95568.66;4355617;32;20193;-61
2023/08/08 08:32:39;;;;;;;0.30;0.30;;;;;;;17.32;61.39;95561.28;4338207;32;20204;-61
2023/08/08 08:35:06;;;;;;;2.57;0.70;;;;;;;17.39;63.68;95569.56;4350887;32;20275;-61
2023/08/08 08:37:32;;;;;;;0.00;0.00;;;;;;;17.43;62.19;95568.59;4353093;32;20226;-61
2023/08/08 08:39:58;;;;;;;0.17;0.17;;;;;;;17.46;62.74;95556.38;4355091;32;20223;-62
2023/08/08 08:42:24;;;;;;;0.73;0.73;;;;;;;17.52;59.31;95566.59;4349786;32;20185;-61
2023/08/08 08:44:51;;;;;;;0.20;0.20;;;;;;;17.47;61.05;95552.59;4352085;32;20209;-61
2023/08/08 08:47:19;;;;;;;0.40;0.40;;;;;;;17.50;60.86;95562.66;4352994;32;20256;-61
2023/08/08 08:49:46;;;;;;;0.00;0.00;;;;;;;17.62;62.85;95553.88;4339028;32;20229;-61
2023/08/08 08:52:12;;;;;;;0.20;0.20;;;;;;;17.70;60.74;95556.47;4353459;32;20231;-61
2023/08/08 08:54:38;;;;;;;0.10;0.10;;;;;;;17.66;62.48;95549.47;4354506;32;20223;-61
2023/08/08 08:57:03;;;;;;;0.20;0.20;;;;;;;17.75;60.68;95548.22;4353053;32;20216;-61
2023/08/08 08:59:29;;;;;;;0.37;0.37;;;;;;;17.76;61.35;95544.44;4353855;32;20248;-61
2023/08/08 09:01:56;;;;;;;0.30;0.30;;;;;;;17.82;61.03;95543.09;4356715;32;20181;-61
2023/08/08 09:04:21;;;;;;;0.43;0.43;;;;;;;17.95;61.16;95540.41;4348646;32;20193;-61
2023/08/08 09:06:48;;;;;;;0.10;0.10;;;;;;;17.90;60.82;95536.03;4351331;32;22056;-62
2023/08/08 09:09:15;;;;;;;0.20;0.20;;;;;;;17.94;61.87;95538.84;4356101;32;20189;-62
2023/08/08 09:11:47;;;;;;;0.40;0.40;;;;;;;18.01;60.46;95539.09;4342763;32;20235;-61
2023/08/08 09:14:26;;;;;;;0.10;0.10;;;;;;;18.11;60.25;95534.03;4334963;32;20193;-62
2023/08/08 09:16:53;;;;;;;0.67;0.67;;;;;;;18.11;58.51;95526.00;4346500;32;20201;-62
2023/08/08 09:19:19;;;;;;;1.10;1.07;;;;;;;18.21;59.36;95527.47;4338195;32;20303;-61
2023/08/08 09:21:45;;;;;;;0.20;0.20;;;;;;;18.26;59.83;95529.13;4329710;32;20250;-62
2023/08/08 09:24:11;;;;;;;0.20;0.20;;;;;;;18.36;57.78;95534.81;4353160;32;20288;-62
2023/08/08 09:26:36;;;;;;;1.03;0.60;;;;;;;18.38;58.08;95527.22;4344084;32;20185;-62
2023/08/08 09:29:03;;;;;;;0.20;0.20;;;;;;;18.41;57.46;95528.44;4351154;32;20259;-61
2023/08/08 09:31:29;;;;;;;1.70;0.77;;;;;;;18.33;57.58;95524.75;4332855;32;20209;-62
2023/08/08 09:33:58;;;;;;;0.30;0.30;;;;;;;18.31;56.71;95532.38;4344421;32;20193;-62
2023/08/08 09:36:23;;;;;;;0.63;0.63;;;;;;;18.38;55.76;95529.91;4342538;32;20328;-62
2023/08/08 09:38:49;;;;;;;0.40;0.40;;;;;;;18.41;57.07;95525.75;4341998;32;20193;-62
2023/08/08 09:41:14;;;;;;;0.10;0.10;;;;;;;18.40;58.10;95518.81;4351792;32;20189;-62
2023/08/08 09:43:43;;;;;;;0.13;0.13;;;;;;;18.50;56.82;95524.50;4349803;32;20342;-61
2023/08/08 09:46:08;;;;;;;0.20;0.20;;;;;;;18.59;57.07;95515.53;4339858;32;20219;-62
2023/08/08 09:48:34;;;;;;;0.40;0.40;;;;;;;18.64;57.80;95501.91;4325634;32;20187;-62
2023/08/08 09:51:01;;;;;;;0.27;0.27;;;;;;;18.65;56.24;95519.59;4348253;32;20255;-62
2023/08/08 09:53:28;;;;;;;0.20;0.20;;;;;;;18.68;57.28;95508.16;4336687;32;20228;-61
2023/08/08 09:55:55;;;;;;;1.20;0.43;;;;;;;18.74;56.27;95506.78;4339875;32;20212;-62
2023/08/08 09:58:21;;;;;;;0.30;0.30;;;;;;;18.83;56.77;95502.84;4336624;32;20189;-61
2023/08/08 10:00:49;;;;;;;0.20;0.20;;;;;;;18.92;57.38;95510.75;4348527;32;20211;-62
2023/08/08 10:03:15;;;;;;;5.83;0.50;;;;;;;18.93;56.21;95504.25;4343151;32;20303;-62
2023/08/08 10:05:41;;;;;;;0.30;0.30;;;;;;;18.99;57.21;95508.28;4351943;32;20236;-61
2023/08/08 10:08:06;;;;;;;0.20;0.20;;;;;;;18.94;54.45;95505.84;4337979;32;20238;-61
2023/08/08 10:10:32;;;;;;;0.10;0.10;;;;;;;18.95;55.42;95499.34;4347686;32;20201;-62
2023/08/08 10:12:57;;;;;;;5.73;0.67;;;;;;;18.91;56.17;95495.78;4347067;32;20261;-62
2023/08/08 10:15:32;;;;;;;0.20;0.20;;;;;;;18.78;56.98;95502.31;4348340;32;20244;-62
2023/08/08 10:17:58;;;;;;;0.47;0.47;;;;;;;18.67;57.40;95515.44;4343224;32;20237;-64
2023/08/08 10:20:25;;;;;;;0.30;0.30;;;;;;;18.68;57.13;95508.97;4340175;32;20190;-61
2023/08/08 10:22:54;;;;;;;0.87;0.87;;;;;;;18.62;58.15;95504.94;4353804;32;20193;-62
2023/08/08 10:25:23;;;;;;;0.43;0.43;;;;;;;18.62;56.96;95504.16;4340672;32;20201;-61
2023/08/08 10:27:48;;;;;;;0.20;0.20;;;;;;;18.54;56.82;95508.50;4356823;32;20197;-61
2023/08/08 10:30:15;;;;;;;0.50;0.50;;;;;;;18.55;57.29;95505.47;4335894;32;20246;-61
2023/08/08 10:32:43;;;;;;;0.10;0.10;;;;;;;18.62;56.47;95496.09;4334593;32;20361;-61
2023/08/08 10:35:09;;;;;;;0.40;0.40;;;;;;;18.55;54.84;95502.78;4344171;32;20193;-61
2023/08/08 10:38:19;;;;;;;0.00;0.00;;;;;;;18.71;55.65;95510.16;4353083;32;20189;-61
2023/08/08 10:40:44;;;;;;;0.47;0.47;;;;;;;18.74;56.04;95504.87;4334099;32;20215;-61
2023/08/08 10:43:12;;;;;;;0.20;0.20;;;;;;;18.85;55.24;95508.69;4335214;32;20190;-61
2023/08/08 10:45:43;;;;;;;0.10;0.10;;;;;;;18.96;53.54;95498.22;4338036;32;20229;-61
2023/08/08 10:48:09;;;;;;;0.50;0.50;;;;;;;18.99;53.53;95507.50;4344354;32;20204;-61
2023/08/08 10:50:39;;;;;;;0.60;0.60;;;;;;;19.03;53.88;95495.72;4336776;32;20192;-61
2023/08/08 10:53:09;;;;;;;0.83;0.70;;;;;;;19.09;51.72;95498.97;4342848;32;20220;-61
2023/08/08 10:55:36;;;;;;;0.20;0.20;;;;;;;19.16;52.01;95491.84;4340006;32;20215;-61
2023/08/08 10:58:05;;;;;;;0.40;0.40;;;;;;;19.12;53.26;95485.59;4334039;32;20244;-61
2023/08/08 11:00:34;;;;;;;0.03;0.03;;;;;;;19.17;52.03;95501.47;4332276;32;20204;-61
2023/08/08 11:03:00;;;;;;;0.30;0.30;;;;;;;19.07;50.84;95491.22;4337497;32;20194;-61
2023/08/08 11:05:29;;;;;;;0.23;0.23;;;;;;;19.18;52.02;95500.34;4340176;32;20185;-61
2023/08/08 11:07:55;;;;;;;0.50;0.50;;;;;;;19.19;50.86;95491.16;4340270;32;20207;-61
2023/08/08 11:10:22;;;;;;;0.30;0.30;;;;;;;19.18;52.85;95496.87;4348430;32;20227;-61
2023/08/08 11:13:13;;;;;;;0.10;0.10;;;;;;;19.09;52.38;95488.97;4344163;32;23578;-62
2023/08/08 11:15:39;;;;;;;0.03;0.03;;;;;;;19.18;52.57;95483.44;4329444;32;20185;-61
2023/08/08 11:18:04;;;;;;;0.43;0.43;;;;;;;19.27;50.37;95488.66;4351104;32;20192;-61
2023/08/08 11:20:35;;;;;;;0.10;0.10;;;;;;;19.35;51.13;95472.34;4355658;32;20188;-61
2023/08/08 11:23:01;;;;;;;0.10;0.10;;;;;;;19.35;50.86;95476.94;4342528;32;20234;-61
2023/08/08 11:25:30;;;;;;;0.53;0.27;;;;;;;19.48;51.70;95487.31;4352502;32;20215;-61
2023/08/08 11:27:57;;;;;;;0.00;0.00;;;;;;;19.44;48.74;95474.91;4350291;32;20200;-61
2023/08/08 11:30:24;;;;;;;0.30;0.30;;;;;;;19.43;47.36;95468.72;4350763;32;20206;-61